sensor_id;sensor_type;location;lat;lon;timestamp;temperature;humidity
19437;DHT22;9854;50.968;4.168;2022-07-06T00:01:27;16.80;99.90
19437;DHT22;9854;50.968;4.168;2022-07-06T00:03:53;16.50;99.90
19437;DHT22;9854;50.968;4.168;2022-07-06T00:06:19;16.30;99.90
19437;DHT22;9854;50.968;4.168;2022-07-06T00:08:44;16.30;99.90
19437;DHT22;9854;50.968;4.168;2022-07-06T00:11:10;16.30;99.90
19437;DHT22;9854;50.968;4.168;2022-07-06T00:13:36;16.50;99.90
19437;DHT22;9854;50.968;4.168;2022-07-06T00:16:02;16.70;99.90
19437;DHT22;9854;50.968;4.168;2022-07-06T00:18:28;16.90;99.90
19437;DHT22;9854;50.968;4.168;2022-07-06T00:20:54;17.00;99.90
19437;DHT22;9854;50.968;4.168;2022-07-06T00:23:19;17.00;99.90
19437;DHT22;9854;50.968;4.168;2022-07-06T00:25:45;16.90;99.90
19437;DHT22;9854;50.968;4.168;2022-07-06T00:28:11;16.70;99.90
19437;DHT22;9854;50.968;4.168;2022-07-06T00:30:36;16.50;99.90
19437;DHT22;9854;50.968;4.168;2022-07-06T00:33:02;16.20;99.90
19437;DHT22;9854;50.968;4.168;2022-07-06T00:35:28;16.10;99.90
19437;DHT22;9854;50.968;4.168;2022-07-06T00:37:53;16.20;99.90
19437;DHT22;9854;50.968;4.168;2022-07-06T00:40:19;15.90;99.90
19437;DHT22;9854;50.968;4.168;2022-07-06T00:42:47;15.70;99.90
19437;DHT22;9854;50.968;4.168;2022-07-06T00:45:14;15.70;99.90
19437;DHT22;9854;50.968;4.168;2022-07-06T00:47:40;15.70;99.90
19437;DHT22;9854;50.968;4.168;2022-07-06T00:50:08;15.80;99.90
19437;DHT22;9854;50.968;4.168;2022-07-06T00:53:01;15.80;99.90
19437;DHT22;9854;50.968;4.168;2022-07-06T00:55:29;15.60;99.90
19437;DHT22;9854;50.968;4.168;2022-07-06T00:57:56;15.60;99.90
19437;DHT22;9854;50.968;4.168;2022-07-06T01:00:24;15.90;99.90
19437;DHT22;9854;50.968;4.168;2022-07-06T01:02:50;16.40;99.90
19437;DHT22;9854;50.968;4.168;2022-07-06T01:05:17;16.70;99.90
19437;DHT22;9854;50.968;4.168;2022-07-06T01:07:45;16.20;99.90
19437;DHT22;9854;50.968;4.168;2022-07-06T01:10:12;16.00;99.90
19437;DHT22;9854;50.968;4.168;2022-07-06T01:12:41;16.20;99.90
19437;DHT22;9854;50.968;4.168;2022-07-06T01:15:09;16.30;99.90
19437;DHT22;9854;50.968;4.168;2022-07-06T01:17:36;16.30;99.90
19437;DHT22;9854;50.968;4.168;2022-07-06T01:20:11;16.30;99.90
19437;DHT22;9854;50.968;4.168;2022-07-06T01:22:37;16.10;99.90
19437;DHT22;9854;50.968;4.168;2022-07-06T01:25:04;16.00;99.90
19437;DHT22;9854;50.968;4.168;2022-07-06T01:27:30;15.70;99.90
19437;DHT22;9854;50.968;4.168;2022-07-06T01:29:56;15.50;99.90
19437;DHT22;9854;50.968;4.168;2022-07-06T01:32:22;15.30;99.90
19437;DHT22;9854;50.968;4.168;2022-07-06T01:34:47;15.20;99.90
19437;DHT22;9854;50.968;4.168;2022-07-06T01:37:13;15.10;99.90
19437;DHT22;9854;50.968;4.168;2022-07-06T01:39:39;15.20;99.90
19437;DHT22;9854;50.968;4.168;2022-07-06T01:42:05;15.60;99.90
19437;DHT22;9854;50.968;4.168;2022-07-06T01:44:30;15.90;99.90
19437;DHT22;9854;50.968;4.168;2022-07-06T01:46:56;16.00;99.90
19437;DHT22;9854;50.968;4.168;2022-07-06T01:49:22;16.00;99.90
19437;DHT22;9854;50.968;4.168;2022-07-06T01:51:47;15.70;99.90
19437;DHT22;9854;50.968;4.168;2022-07-06T01:54:13;15.30;99.90
19437;DHT22;9854;50.968;4.168;2022-07-06T01:56:39;15.30;99.90
19437;DHT22;9854;50.968;4.168;2022-07-06T01:59:05;15.40;99.90
19437;DHT22;9854;50.968;4.168;2022-07-06T02:01:30;15.40;99.90
19437;DHT22;9854;50.968;4.168;2022-07-06T02:03:56;15.30;99.90
19437;DHT22;9854;50.968;4.168;2022-07-06T02:06:21;15.20;99.90
19437;DHT22;9854;50.968;4.168;2022-07-06T02:08:47;15.10;99.90
19437;DHT22;9854;50.968;4.168;2022-07-06T02:11:13;15.50;99.90
19437;DHT22;9854;50.968;4.168;2022-07-06T02:13:39;15.40;99.90
19437;DHT22;9854;50.968;4.168;2022-07-06T02:16:04;15.90;99.90
19437;DHT22;9854;50.968;4.168;2022-07-06T02:18:30;15.80;99.90
19437;DHT22;9854;50.968;4.168;2022-07-06T02:20:56;15.20;99.90
19437;DHT22;9854;50.968;4.168;2022-07-06T02:23:22;15.10;99.90
19437;DHT22;9854;50.968;4.168;2022-07-06T02:25:47;15.00;99.90
19437;DHT22;9854;50.968;4.168;2022-07-06T02:28:13;15.00;99.90
19437;DHT22;9854;50.968;4.168;2022-07-06T02:30:39;15.00;99.90
19437;DHT22;9854;50.968;4.168;2022-07-06T02:33:04;15.00;99.90
19437;DHT22;9854;50.968;4.168;2022-07-06T02:35:30;15.10;99.90
19437;DHT22;9854;50.968;4.168;2022-07-06T02:37:55;15.20;99.90
19437;DHT22;9854;50.968;4.168;2022-07-06T02:40:21;15.10;99.90
19437;DHT22;9854;50.968;4.168;2022-07-06T02:42:47;15.10;99.90
19437;DHT22;9854;50.968;4.168;2022-07-06T02:45:12;15.00;99.90
19437;DHT22;9854;50.968;4.168;2022-07-06T02:47:38;15.00;99.90
19437;DHT22;9854;50.968;4.168;2022-07-06T02:50:04;15.10;99.90
19437;DHT22;9854;50.968;4.168;2022-07-06T02:52:30;15.40;99.90
19437;DHT22;9854;50.968;4.168;2022-07-06T02:54:56;15.70;99.90
19437;DHT22;9854;50.968;4.168;2022-07-06T02:57:22;15.90;99.90
19437;DHT22;9854;50.968;4.168;2022-07-06T02:59:47;15.60;99.90
19437;DHT22;9854;50.968;4.168;2022-07-06T03:02:15;15.30;99.90
19437;DHT22;9854;50.968;4.168;2022-07-06T03:04:41;15.10;99.90
19437;DHT22;9854;50.968;4.168;2022-07-06T03:07:07;15.00;99.90
19437;DHT22;9854;50.968;4.168;2022-07-06T03:09:33;14.90;99.90
19437;DHT22;9854;50.968;4.168;2022-07-06T03:11:59;14.80;99.90
19437;DHT22;9854;50.968;4.168;2022-07-06T03:14:25;15.10;99.90
19437;DHT22;9854;50.968;4.168;2022-07-06T03:16:51;15.20;99.90
19437;DHT22;9854;50.968;4.168;2022-07-06T03:19:17;15.40;99.90
19437;DHT22;9854;50.968;4.168;2022-07-06T03:21:42;15.10;99.90
19437;DHT22;9854;50.968;4.168;2022-07-06T03:24:08;14.90;99.90
19437;DHT22;9854;50.968;4.168;2022-07-06T03:26:33;15.00;99.90
19437;DHT22;9854;50.968;4.168;2022-07-06T03:28:59;14.80;99.90
19437;DHT22;9854;50.968;4.168;2022-07-06T03:31:25;14.80;99.90
19437;DHT22;9854;50.968;4.168;2022-07-06T03:33:51;14.80;99.90
19437;DHT22;9854;50.968;4.168;2022-07-06T03:36:17;15.20;99.90
19437;DHT22;9854;50.968;4.168;2022-07-06T03:38:43;15.50;99.90
19437;DHT22;9854;50.968;4.168;2022-07-06T03:41:09;15.50;99.90
19437;DHT22;9854;50.968;4.168;2022-07-06T03:43:34;15.60;99.90
19437;DHT22;9854;50.968;4.168;2022-07-06T03:46:00;15.10;99.90
19437;DHT22;9854;50.968;4.168;2022-07-06T03:48:26;14.80;99.90
19437;DHT22;9854;50.968;4.168;2022-07-06T03:50:51;14.70;99.90
19437;DHT22;9854;50.968;4.168;2022-07-06T03:53:17;14.60;99.90
19437;DHT22;9854;50.968;4.168;2022-07-06T03:55:43;14.60;99.90
19437;DHT22;9854;50.968;4.168;2022-07-06T03:58:09;14.90;99.90
19437;DHT22;9854;50.968;4.168;2022-07-06T04:00:34;14.90;99.90
19437;DHT22;9854;50.968;4.168;2022-07-06T04:03:00;14.90;99.90
19437;DHT22;9854;50.968;4.168;2022-07-06T04:05:26;14.80;99.90
19437;DHT22;9854;50.968;4.168;2022-07-06T04:07:52;14.70;99.90
19437;DHT22;9854;50.968;4.168;2022-07-06T04:10:17;14.70;99.90
19437;DHT22;9854;50.968;4.168;2022-07-06T04:12:44;14.70;99.90
19437;DHT22;9854;50.968;4.168;2022-07-06T04:15:11;15.00;99.90
19437;DHT22;9854;50.968;4.168;2022-07-06T04:17:37;15.10;99.90
19437;DHT22;9854;50.968;4.168;2022-07-06T04:20:18;15.40;99.90
19437;DHT22;9854;50.968;4.168;2022-07-06T04:22:44;15.60;99.90
19437;DHT22;9854;50.968;4.168;2022-07-06T04:25:10;15.40;99.90
19437;DHT22;9854;50.968;4.168;2022-07-06T04:27:36;15.20;99.90
19437;DHT22;9854;50.968;4.168;2022-07-06T04:30:05;15.50;99.90
19437;DHT22;9854;50.968;4.168;2022-07-06T04:32:31;15.60;99.90
19437;DHT22;9854;50.968;4.168;2022-07-06T04:34:57;15.90;99.90
19437;DHT22;9854;50.968;4.168;2022-07-06T04:37:22;15.90;99.90
19437;DHT22;9854;50.968;4.168;2022-07-06T04:39:48;15.90;99.90
19437;DHT22;9854;50.968;4.168;2022-07-06T04:42:14;16.00;99.90
19437;DHT22;9854;50.968;4.168;2022-07-06T04:44:40;16.00;99.90
19437;DHT22;9854;50.968;4.168;2022-07-06T04:47:05;16.00;99.90
19437;DHT22;9854;50.968;4.168;2022-07-06T04:49:31;15.90;99.90
19437;DHT22;9854;50.968;4.168;2022-07-06T04:51:57;15.80;99.90
19437;DHT22;9854;50.968;4.168;2022-07-06T04:54:22;15.70;99.90
19437;DHT22;9854;50.968;4.168;2022-07-06T04:56:48;15.60;99.90
19437;DHT22;9854;50.968;4.168;2022-07-06T04:59:14;15.60;99.90
19437;DHT22;9854;50.968;4.168;2022-07-06T05:01:39;15.80;99.90
19437;DHT22;9854;50.968;4.168;2022-07-06T05:04:06;15.80;99.90
19437;DHT22;9854;50.968;4.168;2022-07-06T05:06:32;15.60;99.90
19437;DHT22;9854;50.968;4.168;2022-07-06T05:08:58;15.60;99.90
19437;DHT22;9854;50.968;4.168;2022-07-06T05:11:25;15.50;99.90
19437;DHT22;9854;50.968;4.168;2022-07-06T05:13:52;15.40;99.90
19437;DHT22;9854;50.968;4.168;2022-07-06T05:16:17;15.60;99.90
19437;DHT22;9854;50.968;4.168;2022-07-06T05:18:43;15.60;99.90
19437;DHT22;9854;50.968;4.168;2022-07-06T05:21:09;15.90;99.90
19437;DHT22;9854;50.968;4.168;2022-07-06T05:23:34;16.30;99.90
19437;DHT22;9854;50.968;4.168;2022-07-06T05:26:00;16.60;99.90
19437;DHT22;9854;50.968;4.168;2022-07-06T05:28:26;16.60;99.90
19437;DHT22;9854;50.968;4.168;2022-07-06T05:30:52;17.00;99.90
19437;DHT22;9854;50.968;4.168;2022-07-06T05:33:17;16.90;99.90
19437;DHT22;9854;50.968;4.168;2022-07-06T05:35:43;16.80;99.90
19437;DHT22;9854;50.968;4.168;2022-07-06T05:38:09;16.70;99.90
19437;DHT22;9854;50.968;4.168;2022-07-06T05:40:34;17.00;99.90
19437;DHT22;9854;50.968;4.168;2022-07-06T05:43:00;16.80;99.90
19437;DHT22;9854;50.968;4.168;2022-07-06T05:45:25;16.70;99.90
19437;DHT22;9854;50.968;4.168;2022-07-06T05:47:51;16.90;99.90
19437;DHT22;9854;50.968;4.168;2022-07-06T05:50:35;17.20;99.90
19437;DHT22;9854;50.968;4.168;2022-07-06T05:53:05;17.40;99.90
19437;DHT22;9854;50.968;4.168;2022-07-06T05:55:31;17.10;99.90
19437;DHT22;9854;50.968;4.168;2022-07-06T05:57:57;17.10;99.90
19437;DHT22;9854;50.968;4.168;2022-07-06T06:00:24;17.10;99.90
19437;DHT22;9854;50.968;4.168;2022-07-06T06:02:50;17.20;99.90
19437;DHT22;9854;50.968;4.168;2022-07-06T06:05:17;17.30;99.90
19437;DHT22;9854;50.968;4.168;2022-07-06T06:07:43;17.40;99.90
19437;DHT22;9854;50.968;4.168;2022-07-06T06:10:11;17.80;99.90
19437;DHT22;9854;50.968;4.168;2022-07-06T06:12:37;18.10;99.90
19437;DHT22;9854;50.968;4.168;2022-07-06T06:15:03;18.20;99.90
19437;DHT22;9854;50.968;4.168;2022-07-06T06:17:29;18.50;99.90
19437;DHT22;9854;50.968;4.168;2022-07-06T06:19:55;18.50;99.90
19437;DHT22;9854;50.968;4.168;2022-07-06T06:22:21;18.80;99.90
19437;DHT22;9854;50.968;4.168;2022-07-06T06:24:46;18.70;99.90
19437;DHT22;9854;50.968;4.168;2022-07-06T06:27:12;18.60;99.90
19437;DHT22;9854;50.968;4.168;2022-07-06T06:29:38;18.90;99.90
19437;DHT22;9854;50.968;4.168;2022-07-06T06:32:04;19.00;99.90
19437;DHT22;9854;50.968;4.168;2022-07-06T06:34:31;19.10;99.90
19437;DHT22;9854;50.968;4.168;2022-07-06T06:36:57;18.80;99.90
19437;DHT22;9854;50.968;4.168;2022-07-06T06:39:23;18.90;99.90
19437;DHT22;9854;50.968;4.168;2022-07-06T06:41:48;18.80;99.90
19437;DHT22;9854;50.968;4.168;2022-07-06T06:44:14;19.00;99.90
19437;DHT22;9854;50.968;4.168;2022-07-06T06:46:40;19.40;99.90
19437;DHT22;9854;50.968;4.168;2022-07-06T06:49:06;19.50;99.90
19437;DHT22;9854;50.968;4.168;2022-07-06T06:51:32;19.30;99.90
19437;DHT22;9854;50.968;4.168;2022-07-06T06:53:58;19.20;99.90
19437;DHT22;9854;50.968;4.168;2022-07-06T06:56:24;19.20;99.90
19437;DHT22;9854;50.968;4.168;2022-07-06T06:58:49;19.00;99.90
19437;DHT22;9854;50.968;4.168;2022-07-06T07:01:15;19.20;99.90
19437;DHT22;9854;50.968;4.168;2022-07-06T07:03:41;19.40;99.90
19437;DHT22;9854;50.968;4.168;2022-07-06T07:06:07;19.50;99.90
19437;DHT22;9854;50.968;4.168;2022-07-06T07:08:32;19.50;99.90
19437;DHT22;9854;50.968;4.168;2022-07-06T07:10:58;19.50;99.90
19437;DHT22;9854;50.968;4.168;2022-07-06T07:13:24;19.50;99.90
19437;DHT22;9854;50.968;4.168;2022-07-06T07:15:49;19.40;99.90
19437;DHT22;9854;50.968;4.168;2022-07-06T07:18:15;19.50;99.90
19437;DHT22;9854;50.968;4.168;2022-07-06T07:20:41;19.40;99.90
19437;DHT22;9854;50.968;4.168;2022-07-06T07:23:06;19.30;99.90
19437;DHT22;9854;50.968;4.168;2022-07-06T07:25:32;19.50;99.90
19437;DHT22;9854;50.968;4.168;2022-07-06T07:27:57;19.70;99.90
19437;DHT22;9854;50.968;4.168;2022-07-06T07:30:23;19.50;99.90
19437;DHT22;9854;50.968;4.168;2022-07-06T07:32:49;19.40;99.90
19437;DHT22;9854;50.968;4.168;2022-07-06T07:35:15;19.30;99.90
19437;DHT22;9854;50.968;4.168;2022-07-06T07:37:40;19.40;99.90
19437;DHT22;9854;50.968;4.168;2022-07-06T07:40:06;19.50;99.90
19437;DHT22;9854;50.968;4.168;2022-07-06T07:42:32;19.60;99.90
19437;DHT22;9854;50.968;4.168;2022-07-06T07:44:58;19.80;99.90
19437;DHT22;9854;50.968;4.168;2022-07-06T07:47:24;19.60;99.90
19437;DHT22;9854;50.968;4.168;2022-07-06T07:49:49;19.60;99.90
19437;DHT22;9854;50.968;4.168;2022-07-06T07:52:15;19.60;99.90
19437;DHT22;9854;50.968;4.168;2022-07-06T07:54:41;19.70;99.90
19437;DHT22;9854;50.968;4.168;2022-07-06T07:57:06;19.80;99.90
19437;DHT22;9854;50.968;4.168;2022-07-06T07:59:32;19.70;99.90
19437;DHT22;9854;50.968;4.168;2022-07-06T08:01:58;19.90;99.90
19437;DHT22;9854;50.968;4.168;2022-07-06T08:04:23;19.80;99.90
19437;DHT22;9854;50.968;4.168;2022-07-06T08:06:49;19.70;99.90
19437;DHT22;9854;50.968;4.168;2022-07-06T08:09:15;19.70;99.90
19437;DHT22;9854;50.968;4.168;2022-07-06T08:11:42;20.10;99.90
19437;DHT22;9854;50.968;4.168;2022-07-06T08:14:08;19.90;99.90
19437;DHT22;9854;50.968;4.168;2022-07-06T08:16:34;20.10;99.90
19437;DHT22;9854;50.968;4.168;2022-07-06T08:18:59;19.90;99.90
19437;DHT22;9854;50.968;4.168;2022-07-06T08:21:26;19.90;99.90
19437;DHT22;9854;50.968;4.168;2022-07-06T08:23:53;19.70;99.90
19437;DHT22;9854;50.968;4.168;2022-07-06T08:26:19;19.80;99.90
19437;DHT22;9854;50.968;4.168;2022-07-06T08:28:45;19.80;99.90
19437;DHT22;9854;50.968;4.168;2022-07-06T08:31:11;19.80;99.90
19437;DHT22;9854;50.968;4.168;2022-07-06T08:33:37;20.10;99.90
19437;DHT22;9854;50.968;4.168;2022-07-06T08:36:03;20.30;99.90
19437;DHT22;9854;50.968;4.168;2022-07-06T08:38:29;20.20;99.90
19437;DHT22;9854;50.968;4.168;2022-07-06T08:40:54;20.30;99.90
19437;DHT22;9854;50.968;4.168;2022-07-06T08:43:20;20.60;99.90
19437;DHT22;9854;50.968;4.168;2022-07-06T08:45:49;20.90;99.90
19437;DHT22;9854;50.968;4.168;2022-07-06T08:48:16;21.30;99.90
19437;DHT22;9854;50.968;4.168;2022-07-06T08:50:43;21.80;99.90
19437;DHT22;9854;50.968;4.168;2022-07-06T08:53:09;22.30;99.90
19437;DHT22;9854;50.968;4.168;2022-07-06T08:55:34;22.20;99.90
19437;DHT22;9854;50.968;4.168;2022-07-06T08:58:01;21.90;99.90
19437;DHT22;9854;50.968;4.168;2022-07-06T09:00:27;21.70;99.90
19437;DHT22;9854;50.968;4.168;2022-07-06T09:02:53;21.90;99.90
19437;DHT22;9854;50.968;4.168;2022-07-06T09:05:23;22.40;99.90
19437;DHT22;9854;50.968;4.168;2022-07-06T09:07:50;22.70;99.90
19437;DHT22;9854;50.968;4.168;2022-07-06T09:10:20;22.90;99.90
19437;DHT22;9854;50.968;4.168;2022-07-06T09:12:47;22.90;99.90
19437;DHT22;9854;50.968;4.168;2022-07-06T09:15:13;23.00;99.90
19437;DHT22;9854;50.968;4.168;2022-07-06T09:17:40;22.80;99.90
19437;DHT22;9854;50.968;4.168;2022-07-06T09:20:10;22.50;99.90
19437;DHT22;9854;50.968;4.168;2022-07-06T09:22:37;22.70;99.90
19437;DHT22;9854;50.968;4.168;2022-07-06T09:25:10;22.70;99.90
19437;DHT22;9854;50.968;4.168;2022-07-06T09:27:39;22.30;99.90
19437;DHT22;9854;50.968;4.168;2022-07-06T09:30:06;22.40;99.90
19437;DHT22;9854;50.968;4.168;2022-07-06T09:32:42;22.60;99.90
19437;DHT22;9854;50.968;4.168;2022-07-06T09:35:18;23.00;99.90
19437;DHT22;9854;50.968;4.168;2022-07-06T09:37:45;23.20;99.90
19437;DHT22;9854;50.968;4.168;2022-07-06T09:40:19;23.60;99.90
19437;DHT22;9854;50.968;4.168;2022-07-06T09:42:45;23.90;99.90
19437;DHT22;9854;50.968;4.168;2022-07-06T09:45:11;23.70;99.90
19437;DHT22;9854;50.968;4.168;2022-07-06T09:47:37;23.50;99.90
19437;DHT22;9854;50.968;4.168;2022-07-06T09:50:05;23.70;99.90
19437;DHT22;9854;50.968;4.168;2022-07-06T09:52:35;23.90;99.90
19437;DHT22;9854;50.968;4.168;2022-07-06T09:55:00;23.80;99.90
19437;DHT22;9854;50.968;4.168;2022-07-06T09:57:30;23.80;99.90
19437;DHT22;9854;50.968;4.168;2022-07-06T09:59:58;24.00;99.90
19437;DHT22;9854;50.968;4.168;2022-07-06T10:02:24;24.00;99.90
19437;DHT22;9854;50.968;4.168;2022-07-06T10:04:53;24.10;99.90
19437;DHT22;9854;50.968;4.168;2022-07-06T10:07:22;24.10;99.90
19437;DHT22;9854;50.968;4.168;2022-07-06T10:09:50;24.00;99.90
19437;DHT22;9854;50.968;4.168;2022-07-06T10:12:17;23.70;99.90
19437;DHT22;9854;50.968;4.168;2022-07-06T10:14:44;23.70;99.90
19437;DHT22;9854;50.968;4.168;2022-07-06T10:17:12;23.70;99.90
19437;DHT22;9854;50.968;4.168;2022-07-06T10:19:39;23.60;99.90
19437;DHT22;9854;50.968;4.168;2022-07-06T10:22:06;23.60;99.90
19437;DHT22;9854;50.968;4.168;2022-07-06T10:24:32;23.20;99.90
19437;DHT22;9854;50.968;4.168;2022-07-06T10:27:04;23.00;99.90
19437;DHT22;9854;50.968;4.168;2022-07-06T10:29:31;23.30;99.90
19437;DHT22;9854;50.968;4.168;2022-07-06T10:31:58;23.30;99.90
19437;DHT22;9854;50.968;4.168;2022-07-06T10:34:25;23.70;99.90
19437;DHT22;9854;50.968;4.168;2022-07-06T10:36:53;23.50;99.90
19437;DHT22;9854;50.968;4.168;2022-07-06T10:39:37;24.00;99.90
19437;DHT22;9854;50.968;4.168;2022-07-06T10:42:45;24.30;99.90
19437;DHT22;9854;50.968;4.168;2022-07-06T10:45:13;24.60;99.90
19437;DHT22;9854;50.968;4.168;2022-07-06T10:47:41;24.50;99.90
19437;DHT22;9854;50.968;4.168;2022-07-06T10:50:06;24.00;99.90
19437;DHT22;9854;50.968;4.168;2022-07-06T10:52:51;23.90;99.90
19437;DHT22;9854;50.968;4.168;2022-07-06T10:55:28;23.50;99.90
19437;DHT22;9854;50.968;4.168;2022-07-06T10:57:55;23.90;99.90
19437;DHT22;9854;50.968;4.168;2022-07-06T11:00:20;24.40;99.90
19437;DHT22;9854;50.968;4.168;2022-07-06T11:02:46;24.70;99.90
19437;DHT22;9854;50.968;4.168;2022-07-06T11:05:41;24.90;99.90
19437;DHT22;9854;50.968;4.168;2022-07-06T11:08:09;24.60;99.90
19437;DHT22;9854;50.968;4.168;2022-07-06T11:10:48;24.70;99.90
19437;DHT22;9854;50.968;4.168;2022-07-06T11:13:27;25.00;99.90
19437;DHT22;9854;50.968;4.168;2022-07-06T11:16:01;25.20;99.90
19437;DHT22;9854;50.968;4.168;2022-07-06T11:18:27;25.00;99.90
19437;DHT22;9854;50.968;4.168;2022-07-06T11:21:22;24.60;99.90
19437;DHT22;9854;50.968;4.168;2022-07-06T11:23:50;24.40;99.90
19437;DHT22;9854;50.968;4.168;2022-07-06T11:26:17;24.20;99.90
19437;DHT22;9854;50.968;4.168;2022-07-06T11:28:46;24.40;99.90
19437;DHT22;9854;50.968;4.168;2022-07-06T11:31:14;24.70;99.90
19437;DHT22;9854;50.968;4.168;2022-07-06T11:33:40;24.80;99.90
19437;DHT22;9854;50.968;4.168;2022-07-06T11:36:19;24.40;99.90
19437;DHT22;9854;50.968;4.168;2022-07-06T11:38:46;24.20;99.90
19437;DHT22;9854;50.968;4.168;2022-07-06T11:41:14;24.10;99.90
19437;DHT22;9854;50.968;4.168;2022-07-06T11:43:44;24.40;99.90
19437;DHT22;9854;50.968;4.168;2022-07-06T11:48:53;24.70;99.90
19437;DHT22;9854;50.968;4.168;2022-07-06T11:51:19;25.00;99.90
19437;DHT22;9854;50.968;4.168;2022-07-06T11:53:50;25.40;99.90
19437;DHT22;9854;50.968;4.168;2022-07-06T11:56:17;25.50;99.90
19437;DHT22;9854;50.968;4.168;2022-07-06T11:58:49;25.20;99.90
19437;DHT22;9854;50.968;4.168;2022-07-06T12:01:15;25.30;99.90
19437;DHT22;9854;50.968;4.168;2022-07-06T12:03:42;24.80;99.90
19437;DHT22;9854;50.968;4.168;2022-07-06T12:06:22;24.40;99.90
19437;DHT22;9854;50.968;4.168;2022-07-06T12:08:59;24.10;99.90
19437;DHT22;9854;50.968;4.168;2022-07-06T12:11:29;23.90;99.90
19437;DHT22;9854;50.968;4.168;2022-07-06T12:13:57;23.70;99.90
19437;DHT22;9854;50.968;4.168;2022-07-06T12:16:32;24.10;99.90
19437;DHT22;9854;50.968;4.168;2022-07-06T12:19:00;24.20;99.90
19437;DHT22;9854;50.968;4.168;2022-07-06T12:21:26;24.00;99.90
19437;DHT22;9854;50.968;4.168;2022-07-06T12:23:53;24.00;99.90
19437;DHT22;9854;50.968;4.168;2022-07-06T12:26:21;24.30;99.90
19437;DHT22;9854;50.968;4.168;2022-07-06T12:29:03;24.20;99.90
19437;DHT22;9854;50.968;4.168;2022-07-06T12:31:48;24.60;99.90
19437;DHT22;9854;50.968;4.168;2022-07-06T12:34:16;25.00;99.90
19437;DHT22;9854;50.968;4.168;2022-07-06T12:36:53;24.60;99.90
19437;DHT22;9854;50.968;4.168;2022-07-06T12:39:27;24.80;99.90
19437;DHT22;9854;50.968;4.168;2022-07-06T12:44:21;24.80;99.90
19437;DHT22;9854;50.968;4.168;2022-07-06T12:46:49;24.90;99.90
19437;DHT22;9854;50.968;4.168;2022-07-06T12:49:22;24.90;99.90
19437;DHT22;9854;50.968;4.168;2022-07-06T12:51:53;24.80;99.90
19437;DHT22;9854;50.968;4.168;2022-07-06T12:54:19;24.30;99.90
19437;DHT22;9854;50.968;4.168;2022-07-06T12:57:11;24.30;99.90
19437;DHT22;9854;50.968;4.168;2022-07-06T12:59:56;25.00;99.90
19437;DHT22;9854;50.968;4.168;2022-07-06T13:02:35;25.60;99.90
19437;DHT22;9854;50.968;4.168;2022-07-06T13:05:06;25.60;99.90
19437;DHT22;9854;50.968;4.168;2022-07-06T13:07:34;25.80;99.90
19437;DHT22;9854;50.968;4.168;2022-07-06T13:10:08;25.60;99.90
19437;DHT22;9854;50.968;4.168;2022-07-06T13:12:34;25.60;99.90
19437;DHT22;9854;50.968;4.168;2022-07-06T13:15:01;25.70;99.90
19437;DHT22;9854;50.968;4.168;2022-07-06T13:17:27;25.90;99.90
19437;DHT22;9854;50.968;4.168;2022-07-06T13:19:53;26.20;99.90
19437;DHT22;9854;50.968;4.168;2022-07-06T13:22:19;25.80;99.90
19437;DHT22;9854;50.968;4.168;2022-07-06T13:24:44;25.90;99.90
19437;DHT22;9854;50.968;4.168;2022-07-06T13:27:10;26.40;99.90
19437;DHT22;9854;50.968;4.168;2022-07-06T13:29:37;25.90;99.90
19437;DHT22;9854;50.968;4.168;2022-07-06T13:32:03;25.10;99.90
19437;DHT22;9854;50.968;4.168;2022-07-06T13:34:29;24.60;99.90
19437;DHT22;9854;50.968;4.168;2022-07-06T13:36:55;24.50;99.90
19437;DHT22;9854;50.968;4.168;2022-07-06T13:39:21;24.70;99.90
19437;DHT22;9854;50.968;4.168;2022-07-06T13:41:46;24.30;99.90
19437;DHT22;9854;50.968;4.168;2022-07-06T13:44:12;24.00;99.90
19437;DHT22;9854;50.968;4.168;2022-07-06T13:46:38;23.80;99.90
19437;DHT22;9854;50.968;4.168;2022-07-06T13:49:08;24.00;99.90
19437;DHT22;9854;50.968;4.168;2022-07-06T13:51:34;24.80;99.90
19437;DHT22;9854;50.968;4.168;2022-07-06T13:54:00;25.70;99.90
19437;DHT22;9854;50.968;4.168;2022-07-06T13:56:26;26.30;99.90
19437;DHT22;9854;50.968;4.168;2022-07-06T13:58:53;26.90;99.90
19437;DHT22;9854;50.968;4.168;2022-07-06T14:01:19;26.90;99.90
19437;DHT22;9854;50.968;4.168;2022-07-06T14:03:45;27.00;99.90
19437;DHT22;9854;50.968;4.168;2022-07-06T14:06:11;26.60;99.90
19437;DHT22;9854;50.968;4.168;2022-07-06T14:08:38;26.40;99.90
19437;DHT22;9854;50.968;4.168;2022-07-06T14:11:05;26.10;99.90
19437;DHT22;9854;50.968;4.168;2022-07-06T14:13:32;25.90;99.90
19437;DHT22;9854;50.968;4.168;2022-07-06T14:15:59;26.10;99.90
19437;DHT22;9854;50.968;4.168;2022-07-06T14:18:25;26.50;99.90
19437;DHT22;9854;50.968;4.168;2022-07-06T14:20:51;26.80;99.90
19437;DHT22;9854;50.968;4.168;2022-07-06T14:23:17;26.90;99.90
19437;DHT22;9854;50.968;4.168;2022-07-06T14:25:43;26.80;99.90
19437;DHT22;9854;50.968;4.168;2022-07-06T14:28:10;26.40;99.90
19437;DHT22;9854;50.968;4.168;2022-07-06T14:30:36;26.60;99.90
19437;DHT22;9854;50.968;4.168;2022-07-06T14:33:07;27.00;99.90
19437;DHT22;9854;50.968;4.168;2022-07-06T14:35:43;27.50;99.90
19437;DHT22;9854;50.968;4.168;2022-07-06T14:38:10;27.60;99.90
19437;DHT22;9854;50.968;4.168;2022-07-06T14:40:36;27.20;99.90
19437;DHT22;9854;50.968;4.168;2022-07-06T14:43:03;27.60;99.90
19437;DHT22;9854;50.968;4.168;2022-07-06T14:45:29;27.70;99.90
19437;DHT22;9854;50.968;4.168;2022-07-06T14:47:56;28.40;99.90
19437;DHT22;9854;50.968;4.168;2022-07-06T14:50:22;28.50;99.90
19437;DHT22;9854;50.968;4.168;2022-07-06T14:52:51;28.10;99.90
19437;DHT22;9854;50.968;4.168;2022-07-06T14:55:17;28.30;99.90
19437;DHT22;9854;50.968;4.168;2022-07-06T14:57:43;28.60;99.90
19437;DHT22;9854;50.968;4.168;2022-07-06T15:00:09;28.20;99.90
19437;DHT22;9854;50.968;4.168;2022-07-06T15:02:35;27.30;99.90
19437;DHT22;9854;50.968;4.168;2022-07-06T15:05:02;26.30;99.90
19437;DHT22;9854;50.968;4.168;2022-07-06T15:07:27;26.00;99.90
19437;DHT22;9854;50.968;4.168;2022-07-06T15:09:53;25.60;99.90
19437;DHT22;9854;50.968;4.168;2022-07-06T15:12:19;25.40;99.90
19437;DHT22;9854;50.968;4.168;2022-07-06T15:14:45;25.10;99.90
19437;DHT22;9854;50.968;4.168;2022-07-06T15:17:10;24.70;99.90
19437;DHT22;9854;50.968;4.168;2022-07-06T15:19:36;24.70;99.90
19437;DHT22;9854;50.968;4.168;2022-07-06T15:22:02;25.00;99.90
19437;DHT22;9854;50.968;4.168;2022-07-06T15:24:27;24.80;99.90
19437;DHT22;9854;50.968;4.168;2022-07-06T15:26:53;24.70;99.90
19437;DHT22;9854;50.968;4.168;2022-07-06T15:29:19;24.50;99.90
19437;DHT22;9854;50.968;4.168;2022-07-06T15:31:44;24.60;99.90
19437;DHT22;9854;50.968;4.168;2022-07-06T15:34:10;24.50;99.90
19437;DHT22;9854;50.968;4.168;2022-07-06T15:36:36;24.60;99.90
19437;DHT22;9854;50.968;4.168;2022-07-06T15:39:02;24.90;99.90
19437;DHT22;9854;50.968;4.168;2022-07-06T15:41:28;24.80;99.90
19437;DHT22;9854;50.968;4.168;2022-07-06T15:43:54;25.20;99.90
19437;DHT22;9854;50.968;4.168;2022-07-06T15:46:19;25.30;99.90
19437;DHT22;9854;50.968;4.168;2022-07-06T15:48:45;25.60;99.90
19437;DHT22;9854;50.968;4.168;2022-07-06T15:51:11;25.70;99.90